Airport View

Enter AWOS ICAO identifier for current METAR.

ex. KFNL

KPAN 171155Z AUTO 02007KT 10SM CLR 11/M09 A3021 RMK AO2

17 Nov 2019 12:01

Frequency: 119.325

Phone: 928-472-4260

Other Area AWOS: KSEZ - P52 - KSDL - KDVT

TAF KSEZ 171120Z 1712/1812 05012G18KT P6SM SKC FM171600 VRB05KT P6SM SKC FM180300 05011G17KT P6SM SKC